Terminal Aerodrome Forecast
Issued by NWS

Home | Current Version | Previous Version | Text Only | Print | Product List | Glossary On
Versions: 1 2 3 4 5 6 7 8 9 10 11 12 13
000
FTUS46 KSGX 181700
TAFSNA
TAF
KSNA 181728Z 1818/1918 VRB04KT P6SM FEW015
     FM181900 23009KT P6SM SCT015
     FM190200 VRB04KT P6SM BKN017
     FM190900 VRB03KT P6SM OVC022=

USA.gov is the U.S. government's official web portal to all federal, state and local government web resources and services.